createdAt,value
2022-08-29T00:01:41.103Z,9.15
2022-08-29T00:04:07.600Z,11.25
2022-08-29T00:06:34.057Z,7.32
2022-08-29T00:09:00.507Z,8.48
2022-08-29T00:11:26.883Z,12.23
2022-08-29T00:13:53.305Z,11.02
2022-08-29T00:16:19.785Z,10.13
2022-08-29T00:18:46.287Z,9.90
2022-08-29T00:21:12.919Z,11.48
2022-08-29T00:23:40.493Z,13.05
2022-08-29T00:26:06.996Z,7.20
2022-08-29T00:28:33.578Z,11.38
2022-08-29T00:31:00.064Z,9.73
2022-08-29T00:33:26.511Z,15.48
2022-08-29T00:35:52.930Z,9.77
2022-08-29T00:38:19.491Z,10.95
2022-08-29T00:40:51.884Z,10.23
2022-08-29T00:43:37.890Z,13.18
2022-08-29T00:46:23.503Z,9.73
2022-08-29T00:48:53.550Z,10.65
2022-08-29T00:53:50.184Z,9.93
2022-08-29T00:56:17.435Z,9.27
2022-08-29T00:58:47.015Z,11.35
2022-08-29T01:01:14.084Z,9.52
2022-08-29T01:03:42.890Z,13.73
2022-08-29T01:06:10.157Z,10.73
2022-08-29T01:08:36.541Z,13.23
2022-08-29T01:11:22.197Z,9.75
2022-08-29T01:13:51.111Z,10.85
2022-08-29T01:16:19.081Z,12.98
2022-08-29T01:18:47.530Z,10.35
2022-08-29T01:21:19.983Z,9.10
2022-08-29T01:24:05.472Z,13.32
2022-08-29T01:26:32.037Z,8.43
2022-08-29T01:28:58.617Z,11.25
2022-08-29T01:31:42.092Z,12.30
2022-08-29T01:34:17.322Z,18.17
2022-08-29T01:36:50.393Z,9.63
2022-08-29T01:39:17.547Z,8.55
2022-08-29T01:41:44.061Z,12.70
2022-08-29T01:44:12.052Z,12.85
2022-08-29T01:46:38.885Z,11.85
2022-08-29T01:49:07.720Z,12.35
2022-08-29T01:51:34.385Z,12.10
2022-08-29T01:54:00.801Z,12.10
2022-08-29T01:56:29.412Z,13.23
2022-08-29T01:58:56.433Z,10.85
2022-08-29T02:01:25.404Z,10.95
2022-08-29T02:03:51.943Z,9.00
2022-08-29T02:06:18.372Z,11.10
2022-08-29T02:08:44.909Z,12.45
2022-08-29T02:11:12.198Z,11.48
2022-08-29T02:13:39.491Z,12.75
2022-08-29T02:16:06.053Z,13.75
2022-08-29T02:18:33.251Z,10.90
2022-08-29T02:21:00.206Z,11.13
2022-08-29T02:23:30.817Z,12.48
2022-08-29T02:25:57.466Z,8.90
2022-08-29T02:28:23.851Z,11.88
2022-08-29T02:30:56.696Z,10.85
2022-08-29T02:33:24.362Z,10.32
2022-08-29T02:35:51.690Z,9.60
2022-08-29T02:38:18.143Z,8.90
2022-08-29T02:40:44.779Z,11.32
2022-08-29T02:43:11.670Z,10.73
2022-08-29T02:45:38.812Z,8.52
2022-08-29T02:48:05.340Z,9.68
2022-08-29T02:50:31.729Z,9.30
2022-08-29T02:52:58.344Z,8.82
2022-08-29T02:55:24.907Z,10.60
2022-08-29T02:57:53.046Z,8.65
2022-08-29T03:00:21.560Z,8.90
2022-08-29T03:02:47.964Z,9.10
2022-08-29T03:05:15.042Z,10.90
2022-08-29T03:07:41.676Z,9.60
2022-08-29T03:10:08.569Z,9.35
2022-08-29T03:12:36.149Z,11.63
2022-08-29T03:15:04.225Z,13.52
2022-08-29T03:17:31.091Z,10.15
2022-08-29T03:19:58.448Z,13.45
2022-08-29T03:22:25.433Z,12.50
2022-08-29T03:24:51.983Z,8.75
2022-08-29T03:27:19.076Z,8.75
2022-08-29T03:29:45.435Z,12.55
2022-08-29T03:32:12.233Z,7.10
2022-08-29T03:34:38.682Z,9.35
2022-08-29T03:37:05.147Z,11.18
2022-08-29T03:39:31.770Z,13.23
2022-08-29T03:41:58.141Z,11.90
2022-08-29T03:44:24.559Z,12.60
2022-08-29T03:46:51.144Z,11.15
2022-08-29T03:49:17.623Z,12.73
2022-08-29T03:51:44.093Z,12.57
2022-08-29T03:54:10.494Z,11.75
2022-08-29T03:56:36.917Z,10.75
2022-08-29T03:59:03.621Z,11.18
2022-08-29T04:01:30.162Z,12.90
2022-08-29T04:03:57.020Z,10.35
2022-08-29T04:06:24.181Z,10.48
2022-08-29T04:08:51.614Z,11.40
2022-08-29T04:11:19.640Z,14.95
2022-08-29T04:13:47.540Z,9.05
2022-08-29T04:16:15.697Z,10.68
2022-08-29T04:18:42.389Z,13.25
2022-08-29T04:21:09.361Z,15.27
2022-08-29T04:23:37.095Z,13.30
2022-08-29T04:26:27.082Z,8.18
2022-08-29T04:28:50.074Z,13.57
2022-08-29T04:31:20.168Z,14.18
2022-08-29T04:33:47.707Z,14.60
2022-08-29T04:36:15.147Z,12.85
2022-08-29T04:38:41.686Z,15.68
2022-08-29T04:41:09.680Z,13.80
2022-08-29T04:43:36.132Z,11.00
2022-08-29T04:46:02.626Z,13.48
2022-08-29T04:48:29.201Z,14.88
2022-08-29T04:50:56.489Z,13.85
2022-08-29T04:53:23.409Z,16.20
2022-08-29T04:55:57.280Z,11.70
2022-08-29T04:58:25.160Z,12.63
2022-08-29T05:00:52.923Z,13.63
2022-08-29T05:03:20.963Z,11.75
2022-08-29T05:05:55.675Z,15.20
2022-08-29T05:08:23.168Z,15.63
2022-08-29T05:10:49.569Z,14.73
2022-08-29T05:13:15.963Z,10.15
2022-08-29T05:15:42.395Z,21.85
2022-08-29T05:18:08.840Z,14.38
2022-08-29T05:20:35.264Z,14.43
2022-08-29T05:23:01.632Z,15.32
2022-08-29T05:25:28.031Z,12.70
2022-08-29T05:27:54.423Z,12.25
2022-08-29T05:30:35.090Z,13.18
2022-08-29T05:33:02.228Z,16.00
2022-08-29T05:35:28.601Z,12.18
2022-08-29T05:37:54.983Z,16.70
2022-08-29T05:40:21.683Z,15.55
2022-08-29T05:42:48.133Z,13.05
2022-08-29T05:45:16.018Z,15.02
2022-08-29T05:47:42.959Z,14.38
2022-08-29T05:50:11.722Z,11.25
2022-08-29T05:52:38.165Z,15.13
2022-08-29T05:55:04.742Z,12.75
2022-08-29T05:57:31.134Z,13.82
2022-08-29T05:59:57.957Z,11.40
2022-08-29T06:02:26.220Z,15.88
2022-08-29T06:04:53.454Z,13.70
2022-08-29T06:07:19.921Z,16.60
2022-08-29T06:09:46.559Z,17.00
2022-08-29T06:12:14.417Z,11.70
2022-08-29T06:14:41.195Z,15.00
2022-08-29T06:17:16.544Z,9.75
2022-08-29T06:19:43.281Z,11.20
2022-08-29T06:22:10.376Z,15.50
2022-08-29T06:24:38.909Z,16.67
2022-08-29T06:27:05.934Z,11.75
2022-08-29T06:29:42.954Z,16.42
2022-08-29T06:32:09.826Z,13.70
2022-08-29T06:34:36.198Z,15.88
2022-08-29T06:37:02.550Z,13.82
2022-08-29T06:39:28.948Z,11.52
2022-08-29T06:41:55.324Z,14.40
2022-08-29T06:44:23.861Z,11.48
2022-08-29T06:46:50.731Z,17.10
2022-08-29T06:49:18.315Z,14.38
2022-08-29T06:51:46.696Z,13.80
2022-08-29T06:54:13.564Z,16.30
2022-08-29T06:56:40.433Z,16.98
2022-08-29T06:59:08.853Z,14.55
2022-08-29T07:01:35.492Z,15.93
2022-08-29T07:04:02.501Z,16.08
2022-08-29T07:06:29.286Z,12.63
2022-08-29T07:08:56.509Z,17.10
2022-08-29T07:11:23.739Z,16.17
2022-08-29T07:13:50.153Z,16.75
2022-08-29T07:16:17.009Z,14.32
2022-08-29T07:18:44.351Z,11.63
2022-08-29T07:21:15.834Z,12.90
2022-08-29T07:23:46.062Z,15.73
2022-08-29T07:26:14.443Z,11.02
2022-08-29T07:28:45.647Z,14.88
2022-08-29T07:31:13.731Z,12.32
2022-08-29T07:33:40.122Z,14.63
2022-08-29T07:36:06.639Z,13.93
2022-08-29T07:41:14.863Z,12.98
2022-08-29T07:43:41.918Z,16.13
2022-08-29T07:46:09.349Z,10.48
2022-08-29T07:48:36.311Z,13.63
2022-08-29T07:51:05.138Z,9.55
2022-08-29T07:53:33.814Z,11.68
2022-08-29T07:56:04.330Z,13.60
2022-08-29T07:58:31.429Z,14.18
2022-08-29T08:00:57.955Z,12.63
2022-08-29T08:03:24.498Z,16.73
2022-08-29T08:05:53.149Z,16.10
2022-08-29T08:08:22.066Z,12.93
2022-08-29T08:10:52.060Z,12.25
2022-08-29T08:13:21.670Z,15.20
2022-08-29T08:15:50.549Z,12.25
2022-08-29T08:18:17.183Z,12.60
2022-08-29T08:20:49.789Z,12.43
2022-08-29T08:23:20.818Z,13.15
2022-08-29T08:28:13.996Z,11.57
2022-08-29T08:30:40.763Z,12.45
2022-08-29T08:33:07.208Z,16.48
2022-08-29T08:35:35.260Z,13.85
2022-08-29T08:38:04.695Z,15.80
2022-08-29T08:40:31.707Z,11.38
2022-08-29T08:43:00.680Z,12.77
2022-08-29T08:45:33.456Z,9.50
2022-08-29T08:48:04.925Z,16.13
2022-08-29T08:50:43.488Z,10.77
2022-08-29T08:53:12.880Z,10.82
2022-08-29T08:55:43.326Z,11.27
2022-08-29T08:58:29.083Z,11.35
2022-08-29T09:00:58.670Z,10.30
2022-08-29T09:03:40.404Z,14.48
2022-08-29T09:06:14.197Z,10.55
2022-08-29T09:08:46.395Z,9.77
2022-08-29T09:11:27.097Z,12.90
2022-08-29T09:14:02.700Z,10.70
2022-08-29T09:16:33.536Z,16.52
2022-08-29T09:19:04.998Z,9.93
2022-08-29T09:21:40.985Z,12.60
2022-08-29T09:24:10.877Z,9.80
2022-08-29T09:26:37.210Z,13.90
2022-08-29T09:29:03.725Z,12.43
2022-08-29T09:31:34.051Z,10.05
2022-08-29T09:34:08.265Z,13.00
2022-08-29T09:36:48.972Z,11.07
2022-08-29T09:39:29.110Z,10.38
2022-08-29T09:41:57.438Z,10.05
2022-08-29T09:44:30.933Z,10.00
2022-08-29T09:47:17.575Z,9.77
2022-08-29T09:50:03.993Z,11.65
2022-08-29T09:52:30.425Z,9.85
2022-08-29T09:54:57.556Z,11.60
2022-08-29T09:57:29.821Z,9.68
2022-08-29T10:00:06.348Z,9.60
2022-08-29T10:02:43.175Z,14.43
2022-08-29T10:05:11.988Z,10.43
2022-08-29T10:07:49.411Z,9.02
2022-08-29T10:10:18.633Z,11.95
2022-08-29T10:12:49.846Z,8.10
2022-08-29T10:15:33.633Z,10.07
2022-08-29T10:18:27.347Z,13.18
2022-08-29T10:21:13.159Z,9.02
2022-08-29T10:23:49.171Z,8.88
2022-08-29T10:26:21.449Z,11.18
2022-08-29T10:28:51.993Z,8.20
2022-08-29T10:31:33.628Z,10.18
2022-08-29T10:34:08.994Z,9.90
2022-08-29T10:36:38.994Z,12.05
2022-08-29T10:39:16.394Z,29.00
2022-08-29T10:41:53.250Z,8.63
2022-08-29T10:44:40.156Z,7.05
2022-08-29T10:47:16.826Z,7.00
2022-08-29T10:49:56.775Z,10.95
2022-08-29T10:52:41.448Z,9.52
2022-08-29T10:55:27.280Z,9.45
2022-08-29T10:58:02.880Z,9.45
2022-08-29T11:00:43.706Z,9.15
2022-08-29T11:03:13.117Z,10.82
2022-08-29T11:05:42.754Z,10.85
2022-08-29T11:08:16.164Z,9.00
2022-08-29T11:10:49.851Z,11.32
2022-08-29T11:13:23.264Z,7.75
2022-08-29T11:15:56.259Z,8.95
2022-08-29T11:18:25.800Z,10.25
2022-08-29T11:20:56.482Z,8.98
2022-08-29T11:23:36.359Z,9.65
2022-08-29T11:26:07.474Z,9.95
2022-08-29T11:31:21.990Z,12.25
2022-08-29T11:34:11.491Z,8.88
2022-08-29T11:36:51.774Z,9.80
2022-08-29T11:39:36.822Z,8.97
2022-08-29T11:42:06.203Z,10.38
2022-08-29T11:44:35.418Z,9.98
2022-08-29T11:47:21.721Z,8.32
2022-08-29T11:49:50.369Z,10.05
2022-08-29T11:52:26.741Z,9.18
2022-08-29T11:55:10.191Z,8.90
2022-08-29T11:57:45.007Z,6.93
2022-08-29T12:00:30.289Z,10.20
2022-08-29T12:02:56.830Z,7.82
2022-08-29T12:05:29.769Z,7.53
2022-08-29T12:08:14.439Z,9.88
2022-08-29T12:10:54.121Z,5.72
2022-08-29T12:13:39.413Z,7.40
2022-08-29T12:16:09.295Z,5.45
2022-08-29T12:18:39.487Z,10.38
2022-08-29T12:21:26.752Z,5.15
2022-08-29T12:23:53.291Z,6.57
2022-08-29T12:26:38.647Z,7.97
2022-08-29T12:29:10.484Z,7.95
2022-08-29T12:31:51.725Z,9.32
2022-08-29T12:34:50.008Z,6.45
2022-08-29T12:37:37.523Z,10.57
2022-08-29T12:40:13.956Z,10.50
2022-08-29T12:42:48.097Z,10.43
2022-08-29T12:45:20.172Z,7.00
2022-08-29T12:48:12.788Z,6.43
2022-08-29T12:50:45.204Z,7.43
2022-08-29T12:53:23.396Z,7.97
2022-08-29T12:55:57.793Z,7.35
2022-08-29T12:58:38.874Z,5.07
2022-08-29T13:01:07.778Z,7.85
2022-08-29T13:03:34.313Z,6.63
2022-08-29T13:06:05.479Z,6.28
2022-08-29T13:08:33.453Z,12.13
2022-08-29T13:11:01.580Z,8.88
2022-08-29T13:13:28.660Z,6.07
2022-08-29T13:15:56.621Z,5.32
2022-08-29T13:18:23.624Z,5.10
2022-08-29T13:21:02.544Z,5.38
2022-08-29T13:23:31.246Z,5.78
2022-08-29T13:26:18.609Z,7.35
2022-08-29T13:28:46.609Z,5.72
2022-08-29T13:31:16.270Z,7.88
2022-08-29T13:33:45.546Z,7.25
2022-08-29T13:36:44.253Z,7.00
2022-08-29T13:39:25.055Z,7.55
2022-08-29T13:42:04.197Z,6.22
2022-08-29T13:44:33.449Z,9.90
2022-08-29T13:47:02.204Z,7.07
2022-08-29T13:49:29.523Z,7.63
2022-08-29T13:51:59.109Z,6.15
2022-08-29T13:54:26.278Z,5.35
2022-08-29T13:56:56.307Z,7.78
2022-08-29T13:59:25.892Z,3.60
2022-08-29T14:02:10.062Z,4.97
2022-08-29T14:04:39.779Z,5.70
2022-08-29T14:07:08.701Z,6.22
2022-08-29T14:09:39.444Z,5.85
2022-08-29T14:12:06.352Z,5.28
2022-08-29T14:14:32.953Z,6.32
2022-08-29T14:16:59.734Z,6.70
2022-08-29T14:19:27.336Z,5.53
2022-08-29T14:21:54.838Z,4.82
2022-08-29T14:24:21.986Z,4.80
2022-08-29T14:27:01.568Z,6.38
2022-08-29T14:29:32.565Z,5.05
2022-08-29T14:32:11.421Z,3.70
2022-08-29T14:34:39.493Z,5.77
2022-08-29T14:37:06.501Z,4.80
2022-08-29T14:39:32.969Z,7.43
2022-08-29T14:41:59.380Z,4.80
2022-08-29T14:44:25.786Z,6.22
2022-08-29T14:46:52.753Z,7.47
2022-08-29T14:49:19.749Z,5.28
2022-08-29T14:51:46.705Z,6.82
2022-08-29T14:54:13.183Z,4.65
2022-08-29T14:56:50.552Z,6.50
2022-08-29T14:59:21.125Z,8.50
2022-08-29T15:01:53.813Z,6.38
2022-08-29T15:04:34.942Z,5.30
2022-08-29T15:07:13.452Z,4.47
2022-08-29T15:09:43.951Z,6.35
2022-08-29T15:12:11.515Z,5.78
2022-08-29T15:14:38.054Z,5.35
2022-08-29T15:17:05.311Z,5.18
2022-08-29T15:20:04.104Z,6.35
2022-08-29T15:22:20.570Z,4.50
2022-08-29T15:24:47.971Z,6.57
2022-08-29T15:27:14.419Z,3.75
2022-08-29T15:29:40.924Z,4.95
2022-08-29T15:32:07.730Z,4.22
2022-08-29T15:34:34.150Z,4.95
2022-08-29T15:37:00.942Z,6.28
2022-08-29T15:39:28.057Z,5.28
2022-08-29T15:41:55.523Z,4.47
2022-08-29T15:44:22.102Z,5.30
2022-08-29T15:46:51.036Z,3.78
2022-08-29T15:49:18.965Z,4.10
2022-08-29T15:51:45.345Z,3.97
2022-08-29T15:54:11.981Z,4.25
2022-08-29T15:56:38.722Z,2.85
2022-08-29T15:59:06.553Z,4.35
2022-08-29T16:01:36.903Z,2.10
2022-08-29T16:04:04.309Z,5.10
2022-08-29T16:06:31.392Z,3.05
2022-08-29T16:08:57.787Z,2.85
2022-08-29T16:11:24.149Z,2.35
2022-08-29T16:13:58.089Z,2.60
2022-08-29T16:16:35.043Z,2.92
2022-08-29T16:19:05.510Z,3.95
2022-08-29T16:21:33.314Z,3.25
2022-08-29T16:24:00.202Z,4.22
2022-08-29T16:26:27.471Z,4.43
2022-08-29T16:28:53.907Z,3.00
2022-08-29T16:31:20.541Z,4.07
2022-08-29T16:33:47.213Z,4.38
2022-08-29T16:36:13.805Z,3.45
2022-08-29T16:38:40.470Z,3.55
2022-08-29T16:41:08.167Z,2.78
2022-08-29T16:43:35.389Z,4.35
2022-08-29T16:46:06.058Z,2.95
2022-08-29T16:48:36.774Z,3.83
2022-08-29T16:51:06.329Z,2.25
2022-08-29T16:53:36.733Z,3.47
2022-08-29T16:56:06.795Z,4.60
2022-08-29T16:58:52.250Z,1.98
2022-08-29T17:01:18.981Z,3.53
2022-08-29T17:03:45.534Z,1.88
2022-08-29T17:06:11.960Z,2.10
2022-08-29T17:08:38.880Z,3.03
2022-08-29T17:11:05.519Z,2.40
2022-08-29T17:13:34.563Z,3.70
2022-08-29T17:16:03.968Z,3.15
2022-08-29T17:18:30.621Z,4.13
2022-08-29T17:21:05.790Z,3.75
2022-08-29T17:23:38.338Z,4.57
2022-08-29T17:26:06.901Z,3.60
2022-08-29T17:28:33.996Z,2.22
2022-08-29T17:31:02.973Z,2.65
2022-08-29T17:33:29.725Z,2.15
2022-08-29T17:35:56.636Z,2.28
2022-08-29T17:38:28.606Z,1.95
2022-08-29T17:41:01.465Z,2.10
2022-08-29T17:43:36.440Z,1.33
2022-08-29T17:46:03.050Z,2.38
2022-08-29T17:48:29.898Z,3.20
2022-08-29T17:50:57.366Z,3.80
2022-08-29T17:53:25.937Z,2.13
2022-08-29T17:55:53.119Z,2.50
2022-08-29T17:58:20.242Z,2.55
2022-08-29T18:00:48.342Z,2.15
2022-08-29T18:03:14.767Z,5.65
2022-08-29T18:05:41.174Z,3.58
2022-08-29T18:08:09.158Z,2.85
2022-08-29T18:10:39.368Z,2.55
2022-08-29T18:13:05.909Z,2.70
2022-08-29T18:15:35.295Z,3.15
2022-08-29T18:18:02.197Z,1.85
2022-08-29T18:20:28.804Z,2.58
2022-08-29T18:22:55.648Z,2.30
2022-08-29T18:25:22.406Z,3.38
2022-08-29T18:27:50.263Z,2.83
2022-08-29T18:30:16.994Z,4.35
2022-08-29T18:32:43.671Z,2.83
2022-08-29T18:35:10.598Z,4.85
2022-08-29T18:37:37.004Z,5.35
2022-08-29T18:40:07.558Z,2.78
2022-08-29T18:42:41.722Z,2.88
2022-08-29T18:45:08.618Z,3.28
2022-08-29T18:47:35.048Z,3.13
2022-08-29T18:50:20.445Z,5.35
2022-08-29T18:52:56.304Z,3.70
2022-08-29T18:57:50.771Z,2.85
2022-08-29T19:00:17.632Z,2.45
2022-08-29T19:02:44.436Z,6.72
2022-08-29T19:05:11.079Z,2.60
2022-08-29T19:07:37.881Z,2.65
2022-08-29T19:10:06.960Z,4.03
2022-08-29T19:12:33.850Z,4.30
2022-08-29T19:15:00.383Z,5.10
2022-08-29T19:17:27.635Z,5.35
2022-08-29T19:20:13.205Z,4.03
2022-08-29T19:22:39.753Z,5.00
2022-08-29T19:25:08.682Z,6.55
2022-08-29T19:27:44.275Z,3.78
2022-08-29T19:30:16.482Z,2.97
2022-08-29T19:32:42.928Z,4.43
2022-08-29T19:35:11.150Z,5.03
2022-08-29T19:37:37.815Z,5.75
2022-08-29T19:40:05.029Z,3.95
2022-08-29T19:42:31.463Z,8.23
2022-08-29T19:44:58.084Z,4.22
2022-08-29T19:47:25.138Z,4.38
2022-08-29T19:49:51.708Z,5.20
2022-08-29T19:52:18.115Z,4.15
2022-08-29T19:54:44.560Z,3.90
2022-08-29T19:57:14.498Z,5.60
2022-08-29T19:59:41.431Z,4.35
2022-08-29T20:02:09.330Z,4.00
2022-08-29T20:04:36.396Z,5.13
2022-08-29T20:07:03.049Z,4.68
2022-08-29T20:09:30.098Z,5.40
2022-08-29T20:11:58.355Z,3.78
2022-08-29T20:14:24.770Z,4.40
2022-08-29T20:16:51.588Z,4.32
2022-08-29T20:19:18.972Z,3.13
2022-08-29T20:21:45.840Z,4.65
2022-08-29T20:24:15.496Z,6.35
2022-08-29T20:26:42.383Z,6.65
2022-08-29T20:29:10.484Z,5.35
2022-08-29T20:31:38.905Z,3.70
2022-08-29T20:34:07.312Z,4.07
2022-08-29T20:36:54.743Z,4.72
2022-08-29T20:39:22.240Z,4.82
2022-08-29T20:42:19.839Z,4.45
2022-08-29T20:44:46.781Z,3.30
2022-08-29T20:47:15.227Z,4.22
2022-08-29T20:49:44.213Z,5.00
2022-08-29T20:52:41.381Z,5.32
2022-08-29T20:54:58.493Z,3.35
2022-08-29T20:57:25.083Z,6.20
2022-08-29T20:59:54.284Z,4.18
2022-08-29T21:02:48.363Z,5.63
2022-08-29T21:05:33.683Z,4.90
2022-08-29T21:08:01.308Z,4.35
2022-08-29T21:10:28.899Z,4.82
2022-08-29T21:12:55.302Z,4.18
2022-08-29T21:15:22.031Z,2.55
2022-08-29T21:17:48.481Z,3.67
2022-08-29T21:20:14.953Z,4.82
2022-08-29T21:22:42.034Z,2.63
2022-08-29T21:25:08.522Z,6.00
2022-08-29T21:27:35.008Z,3.65
2022-08-29T21:30:01.540Z,2.92
2022-08-29T21:32:27.953Z,4.72
2022-08-29T21:34:54.366Z,2.97
2022-08-29T21:37:20.816Z,3.20
2022-08-29T21:39:48.031Z,4.47
2022-08-29T21:42:14.899Z,2.92
2022-08-29T21:44:42.596Z,3.28
2022-08-29T21:47:09.138Z,4.05
2022-08-29T21:49:35.717Z,3.03
2022-08-29T21:52:02.272Z,3.30
2022-08-29T21:54:28.734Z,2.92
2022-08-29T21:56:55.188Z,2.95
2022-08-29T21:59:23.922Z,2.55
2022-08-29T22:01:54.632Z,2.97
2022-08-29T22:06:56.473Z,4.68
2022-08-29T22:09:25.102Z,2.50
2022-08-29T22:11:52.895Z,3.10
2022-08-29T22:14:19.346Z,3.05
2022-08-29T22:16:48.241Z,3.03
2022-08-29T22:19:16.180Z,4.20
2022-08-29T22:21:44.758Z,4.05
2022-08-29T22:24:21.325Z,3.00
2022-08-29T22:26:50.255Z,4.82
2022-08-29T22:29:16.913Z,3.63
2022-08-29T22:31:44.237Z,3.45
2022-08-29T22:34:11.691Z,3.67
2022-08-29T22:36:38.178Z,4.57
2022-08-29T22:39:04.655Z,3.92
2022-08-29T22:41:31.307Z,3.40
2022-08-29T22:44:42.490Z,2.67
2022-08-29T22:46:48.655Z,3.30
2022-08-29T22:49:15.213Z,4.07
2022-08-29T22:51:41.729Z,6.00
2022-08-29T22:54:26.957Z,4.80
2022-08-29T22:56:54.576Z,3.55
2022-08-29T22:59:21.392Z,4.60
2022-08-29T23:01:47.904Z,4.07
2022-08-29T23:04:14.684Z,2.92
2022-08-29T23:06:41.138Z,8.65
2022-08-29T23:09:07.575Z,3.15
2022-08-29T23:11:34.502Z,3.35
2022-08-29T23:14:01.033Z,3.55
2022-08-29T23:16:28.716Z,4.05
2022-08-29T23:18:55.148Z,4.03
2022-08-29T23:21:23.188Z,2.85
2022-08-29T23:23:52.056Z,3.80
2022-08-29T23:26:20.876Z,5.03
2022-08-29T23:28:50.240Z,4.63
2022-08-29T23:31:17.730Z,3.05
2022-08-29T23:33:44.221Z,3.65
2022-08-29T23:36:10.948Z,3.00
2022-08-29T23:38:38.088Z,3.13
2022-08-29T23:41:04.903Z,3.63
2022-08-29T23:43:36.715Z,4.32
2022-08-29T23:46:06.041Z,3.17
2022-08-29T23:48:33.362Z,3.90
2022-08-29T23:51:00.256Z,5.35
2022-08-29T23:53:26.707Z,3.55
2022-08-29T23:55:53.964Z,5.75
2022-08-29T23:58:20.369Z,5.10
